Time;durP1;ratioP1;P1;durP2;ratioP2;P2;SDS_P1;SDS_P2;PMS_P1;PMS_P2;Temp;Humidity;BMP_temperature;BMP_pressure;BME280_temperature;BME280_humidity;BME280_pressure;Samples;Min_cycle;Max_cycle;Signal;HPM_P1;HPM_P2
2022/08/29 01:03:14;;;;;;;4.70;2.47;;;14.40;99.90;;;;;;5011174;28;20965;-68
2022/08/29 01:05:41;;;;;;;4.60;2.30;;;14.40;99.90;;;;;;5013687;28;20466;-68
2022/08/29 01:08:07;;;;;;;5.60;3.30;;;14.40;99.90;;;;;;5013976;28;20243;-68
2022/08/29 01:13:24;;;;;;;4.80;2.33;;;14.30;99.90;;;;;;4994296;28;20420;-68
2022/08/29 01:15:50;;;;;;;6.03;2.63;;;14.30;99.90;;;;;;4994012;28;20444;-68
2022/08/29 01:18:17;;;;;;;3.23;2.50;;;14.30;99.90;;;;;;4994030;28;20411;-69
2022/08/29 01:21:12;;;;;;;3.83;2.50;;;14.30;99.90;;;;;;4994013;28;20161;-67
2022/08/29 01:23:52;;;;;;;3.30;2.63;;;14.40;99.90;;;;;;4994157;28;20515;-68
2022/08/29 01:26:18;;;;;;;5.60;2.97;;;14.30;99.90;;;;;;4994869;28;20895;-68
2022/08/29 01:28:49;;;;;;;4.93;2.77;;;14.20;99.90;;;;;;4996407;28;20408;-69
2022/08/29 01:31:19;;;;;;;7.27;2.90;;;14.30;99.90;;;;;;4994584;28;20428;-69
2022/08/29 01:33:52;;;;;;;9.27;3.03;;;14.20;99.90;;;;;;4993855;28;20405;-67
2022/08/29 01:36:42;;;;;;;7.03;2.87;;;14.20;99.90;;;;;;4993661;28;20531;-68
2022/08/29 01:39:07;;;;;;;3.10;2.80;;;14.20;99.90;;;;;;4982932;28;20444;-68
2022/08/29 01:41:34;;;;;;;4.20;2.67;;;14.20;99.90;;;;;;4993640;28;20466;-69
2022/08/29 01:44:00;;;;;;;6.23;3.10;;;14.20;99.90;;;;;;4993702;28;20200;-67
2022/08/29 01:46:31;;;;;;;4.93;2.80;;;14.10;99.90;;;;;;4993576;28;20504;-69
2022/08/29 01:48:59;;;;;;;6.53;3.47;;;14.10;99.90;;;;;;4993775;28;20858;-68
2022/08/29 01:51:24;;;;;;;3.87;2.73;;;14.00;99.90;;;;;;4993416;28;20424;-67
2022/08/29 01:53:51;;;;;;;3.73;3.37;;;14.00;99.90;;;;;;4993772;28;20933;-68
2022/08/29 01:56:23;;;;;;;3.70;2.53;;;13.90;99.90;;;;;;4993182;28;20213;-67
2022/08/29 01:58:51;;;;;;;7.90;3.00;;;13.80;99.90;;;;;;4993401;28;20942;-68
2022/08/29 02:01:20;;;;;;;6.53;2.67;;;13.90;99.90;;;;;;4993300;28;20815;-67
2022/08/29 02:03:45;;;;;;;3.67;2.53;;;13.80;99.90;;;;;;4993423;28;20817;-67
2022/08/29 02:06:12;;;;;;;4.53;2.40;;;13.90;99.90;;;;;;4992595;28;20507;-67
2022/08/29 02:08:40;;;;;;;4.17;2.80;;;13.90;99.90;;;;;;4993137;28;20662;-68
2022/08/29 02:11:08;;;;;;;4.10;2.77;;;13.90;99.90;;;;;;4993003;28;20415;-68
2022/08/29 02:13:46;;;;;;;3.10;2.30;;;13.80;99.90;;;;;;4993491;28;20558;-68
2022/08/29 02:16:12;;;;;;;4.37;2.60;;;13.80;99.90;;;;;;4992789;28;20549;-68
2022/08/29 02:18:41;;;;;;;4.00;2.50;;;13.70;99.90;;;;;;4993061;28;20412;-69
2022/08/29 02:21:08;;;;;;;3.07;2.87;;;13.70;99.90;;;;;;4992906;28;20412;-68
2022/08/29 02:23:35;;;;;;;5.40;2.70;;;13.70;99.90;;;;;;4992932;28;20419;-68
2022/08/29 02:26:01;;;;;;;8.30;3.47;;;13.80;99.90;;;;;;4992870;28;20416;-68
2022/08/29 02:28:26;;;;;;;6.00;2.97;;;13.80;99.90;;;;;;4993219;28;20783;-68
2022/08/29 02:30:53;;;;;;;4.33;3.20;;;13.80;99.90;;;;;;4992825;28;20215;-68
2022/08/29 02:33:20;;;;;;;6.57;2.80;;;13.80;99.90;;;;;;4992809;28;20602;-68
2022/08/29 02:35:47;;;;;;;6.90;3.70;;;13.70;99.90;;;;;;4992791;28;20416;-68
2022/08/29 02:38:13;;;;;;;5.23;2.83;;;13.60;99.90;;;;;;4993029;28;20408;-69
2022/08/29 02:40:39;;;;;;;5.33;4.50;;;13.60;99.90;;;;;;4991591;28;20458;-69
2022/08/29 02:43:05;;;;;;;4.50;3.63;;;13.70;99.90;;;;;;4992937;28;20456;-67
2022/08/29 02:45:30;;;;;;;9.63;3.33;;;13.70;99.90;;;;;;4992631;28;20494;-67
2022/08/29 02:47:57;;;;;;;9.27;3.70;;;13.80;99.90;;;;;;4992618;28;20454;-67
2022/08/29 02:50:24;;;;;;;5.00;3.20;;;13.80;99.90;;;;;;4992752;28;20226;-68
2022/08/29 02:52:50;;;;;;;5.13;2.90;;;13.70;99.90;;;;;;4992867;28;20439;-67
2022/08/29 02:55:18;;;;;;;11.07;3.70;;;13.60;99.90;;;;;;4992424;28;20435;-67
2022/08/29 02:57:44;;;;;;;4.33;3.20;;;13.60;99.90;;;;;;4992563;28;20455;-67
2022/08/29 03:00:17;;;;;;;6.77;2.97;;;13.50;99.90;;;;;;4992513;28;20404;-67
2022/08/29 03:02:44;;;;;;;4.50;2.70;;;13.50;99.90;;;;;;4992251;28;20876;-68
2022/08/29 03:05:10;;;;;;;7.90;2.70;;;13.50;99.90;;;;;;4992413;28;20405;-67
2022/08/29 03:07:36;;;;;;;6.33;3.57;;;13.40;99.90;;;;;;4992436;28;21017;-67
2022/08/29 03:10:03;;;;;;;4.80;2.90;;;13.50;99.90;;;;;;4992825;28;20204;-68
2022/08/29 03:12:28;;;;;;;7.37;3.30;;;13.50;99.90;;;;;;4992341;28;20279;-67
2022/08/29 03:14:54;;;;;;;7.70;2.70;;;13.50;99.90;;;;;;4992168;28;20462;-67
2022/08/29 03:17:20;;;;;;;6.30;3.47;;;13.50;99.90;;;;;;4993965;28;20220;-67
2022/08/29 03:19:45;;;;;;;4.60;2.73;;;13.40;99.90;;;;;;4996350;28;20436;-67
2022/08/29 03:22:11;;;;;;;4.93;2.60;;;13.50;99.90;;;;;;4996282;28;20223;-67
2022/08/29 03:24:36;;;;;;;8.90;3.30;;;13.50;99.90;;;;;;4996271;28;20604;-67
2022/08/29 03:27:02;;;;;;;5.17;2.80;;;13.40;99.90;;;;;;4996215;28;20181;-67
2022/08/29 03:29:28;;;;;;;5.33;2.80;;;13.30;99.90;;;;;;4996151;28;20177;-67
2022/08/29 03:31:57;;;;;;;5.73;3.40;;;13.30;99.90;;;;;;4996309;28;20435;-68
2022/08/29 03:34:23;;;;;;;7.03;3.77;;;13.20;99.90;;;;;;4995873;28;20235;-68
2022/08/29 03:36:49;;;;;;;7.70;3.80;;;13.40;99.90;;;;;;4995793;28;20842;-68
2022/08/29 03:39:16;;;;;;;9.30;2.93;;;13.30;99.90;;;;;;4996044;28;20404;-68
2022/08/29 03:41:41;;;;;;;4.63;2.50;;;13.30;99.90;;;;;;4996066;28;20428;-67
2022/08/29 03:44:07;;;;;;;5.37;3.37;;;13.30;99.90;;;;;;4996405;28;20757;-67
2022/08/29 03:46:35;;;;;;;5.43;3.37;;;13.30;99.90;;;;;;4995861;28;20185;-68
2022/08/29 03:49:00;;;;;;;4.80;3.37;;;13.20;99.90;;;;;;4995899;28;20177;-68
2022/08/29 03:51:26;;;;;;;6.03;3.27;;;13.20;99.90;;;;;;4995794;28;20526;-68
2022/08/29 03:53:52;;;;;;;5.90;3.10;;;13.20;99.90;;;;;;4995784;28;20628;-67
2022/08/29 03:56:19;;;;;;;6.57;2.70;;;13.20;99.90;;;;;;4995506;28;20205;-68
2022/08/29 03:58:45;;;;;;;6.13;4.00;;;13.20;99.90;;;;;;4995593;28;20412;-68
2022/08/29 04:01:11;;;;;;;3.23;2.93;;;13.20;99.90;;;;;;4995767;28;20454;-68
2022/08/29 04:03:37;;;;;;;8.23;3.37;;;13.30;99.90;;;;;;4995760;28;20416;-68
2022/08/29 04:06:02;;;;;;;10.70;5.20;;;13.20;99.90;;;;;;4995526;28;20550;-68
2022/08/29 04:08:28;;;;;;;3.90;3.07;;;13.20;99.90;;;;;;4995507;28;20260;-67
2022/08/29 04:10:53;;;;;;;5.10;2.83;;;13.20;99.90;;;;;;4995563;28;20605;-68
2022/08/29 04:13:19;;;;;;;8.63;4.50;;;13.10;99.90;;;;;;4995708;28;20181;-67
2022/08/29 04:15:44;;;;;;;7.50;3.80;;;13.10;99.90;;;;;;4995204;28;20172;-68
2022/08/29 04:18:10;;;;;;;5.13;2.90;;;13.10;99.90;;;;;;4995472;28;20176;-68
2022/08/29 04:20:40;;;;;;;4.97;3.83;;;13.10;99.90;;;;;;4995291;28;20511;-68
2022/08/29 04:23:07;;;;;;;4.70;2.90;;;13.20;99.90;;;;;;4995050;28;20439;-67
2022/08/29 04:25:35;;;;;;;9.47;3.90;;;13.20;99.90;;;;;;4994921;28;20859;-67
2022/08/29 04:28:03;;;;;;;5.23;3.57;;;13.20;99.90;;;;;;4994722;28;20404;-67
2022/08/29 04:30:29;;;;;;;5.20;3.20;;;13.30;99.90;;;;;;4994977;28;20413;-67
2022/08/29 04:32:55;;;;;;;7.37;3.30;;;13.30;99.90;;;;;;4995332;28;20506;-67
2022/08/29 04:35:21;;;;;;;5.50;3.40;;;13.40;99.90;;;;;;4994644;28;20396;-67
2022/08/29 04:37:48;;;;;;;6.40;2.87;;;13.40;99.90;;;;;;4994921;28;20242;-68
2022/08/29 04:40:16;;;;;;;5.80;3.63;;;13.50;99.90;;;;;;4994935;28;20773;-67
2022/08/29 04:42:43;;;;;;;4.67;3.20;;;13.50;99.90;;;;;;4995028;28;20436;-68
2022/08/29 04:45:11;;;;;;;10.90;3.20;;;13.60;99.90;;;;;;4994611;28;20435;-66
2022/08/29 04:47:37;;;;;;;7.83;4.90;;;13.60;99.90;;;;;;4994825;28;20925;-72
2022/08/29 04:50:04;;;;;;;4.30;3.30;;;13.70;99.90;;;;;;4994841;28;20784;-66
2022/08/29 04:52:30;;;;;;;5.70;3.90;;;13.80;99.90;;;;;;4994716;28;20448;-67
2022/08/29 04:54:56;;;;;;;3.60;3.20;;;13.80;99.90;;;;;;4994540;28;20922;-67
2022/08/29 04:57:22;;;;;;;5.23;3.20;;;13.90;99.90;;;;;;4994544;28;20201;-68
2022/08/29 04:59:53;;;;;;;6.47;3.70;;;13.90;99.90;;;;;;4994837;28;20423;-68
2022/08/29 05:02:18;;;;;;;5.07;4.00;;;14.00;99.90;;;;;;4994377;28;20452;-68
2022/08/29 05:04:46;;;;;;;8.70;3.73;;;14.00;99.90;;;;;;4993854;28;20435;-68
2022/08/29 05:07:11;;;;;;;8.87;3.60;;;14.00;99.90;;;;;;4989757;28;20192;-67
2022/08/29 05:09:37;;;;;;;5.67;4.37;;;14.10;99.90;;;;;;4983827;28;20804;-68
2022/08/29 05:12:03;;;;;;;6.67;3.00;;;14.10;99.90;;;;;;4983371;28;20201;-70
2022/08/29 05:14:29;;;;;;;8.13;3.93;;;14.20;99.90;;;;;;4975573;28;20185;-66
2022/08/29 05:16:55;;;;;;;7.97;4.23;;;14.20;99.90;;;;;;4994052;28;20460;-68
2022/08/29 05:19:21;;;;;;;6.10;4.40;;;14.20;99.90;;;;;;4994447;28;20215;-68
2022/08/29 05:21:46;;;;;;;12.50;4.93;;;14.10;99.90;;;;;;4994040;28;20837;-67
2022/08/29 05:24:12;;;;;;;7.03;4.53;;;14.10;99.90;;;;;;4992631;28;20165;-68
2022/08/29 05:26:41;;;;;;;12.30;4.70;;;14.10;99.90;;;;;;4993872;28;20192;-69
2022/08/29 05:29:08;;;;;;;10.10;4.57;;;13.90;99.90;;;;;;4994141;28;20177;-69
2022/08/29 05:31:35;;;;;;;10.10;5.90;;;14.10;99.90;;;;;;4993991;28;20428;-67
2022/08/29 05:34:02;;;;;;;9.53;5.20;;;14.30;99.90;;;;;;4992452;28;20424;-68
2022/08/29 05:36:27;;;;;;;11.70;6.53;;;14.40;99.90;;;;;;4993988;28;20456;-68
2022/08/29 05:38:54;;;;;;;7.63;5.50;;;14.60;99.90;;;;;;4993496;28;20417;-68
2022/08/29 05:41:19;;;;;;;10.47;5.37;;;14.70;99.90;;;;;;4987319;28;20288;-68
2022/08/29 05:43:45;;;;;;;14.23;5.00;;;14.70;99.90;;;;;;4974304;28;21000;-68
2022/08/29 05:46:10;;;;;;;9.17;4.97;;;14.60;99.90;;;;;;4974203;28;20177;-68
2022/08/29 05:48:40;;;;;;;12.70;5.70;;;14.60;99.90;;;;;;4974102;28;20181;-68
2022/08/29 05:51:12;;;;;;;10.40;4.80;;;14.80;99.90;;;;;;4973994;28;20243;-68
2022/08/29 05:53:38;;;;;;;9.40;5.20;;;15.00;99.90;;;;;;4977437;28;20421;-68
2022/08/29 05:56:04;;;;;;;8.17;4.97;;;15.20;99.90;;;;;;4991723;28;20536;-68
2022/08/29 05:58:29;;;;;;;11.67;5.73;;;15.30;99.90;;;;;;4993225;28;20224;-68
2022/08/29 06:00:55;;;;;;;13.50;4.60;;;15.30;99.90;;;;;;4993240;28;20530;-68
2022/08/29 06:03:21;;;;;;;11.60;5.27;;;15.30;99.90;;;;;;4993612;28;20204;-69
2022/08/29 06:05:50;;;;;;;6.50;4.90;;;15.50;99.90;;;;;;4993279;28;20167;-68
2022/08/29 06:08:17;;;;;;;14.03;5.93;;;15.50;99.90;;;;;;4993210;28;20504;-68
2022/08/29 06:10:44;;;;;;;11.60;4.20;;;15.50;99.90;;;;;;4992801;28;20525;-68
2022/08/29 06:13:10;;;;;;;6.13;3.53;;;15.50;99.90;;;;;;4993201;28;20422;-67
2022/08/29 06:15:35;;;;;;;6.33;4.23;;;15.60;99.90;;;;;;4992720;28;20517;-67
2022/08/29 06:18:01;;;;;;;5.47;3.90;;;15.80;99.90;;;;;;4992976;28;20553;-68
2022/08/29 06:20:27;;;;;;;6.50;4.17;;;15.80;99.90;;;;;;4993029;28;20202;-68
2022/08/29 06:22:52;;;;;;;11.63;4.17;;;15.90;99.90;;;;;;4993158;28;21030;-68
2022/08/29 06:25:18;;;;;;;5.17;3.87;;;15.80;99.90;;;;;;4993186;28;20171;-68
2022/08/29 06:27:43;;;;;;;9.83;3.77;;;15.80;99.90;;;;;;4993099;28;20175;-68
2022/08/29 06:30:09;;;;;;;8.27;3.83;;;15.70;99.90;;;;;;4993776;28;20633;-68
2022/08/29 06:32:35;;;;;;;6.53;3.83;;;15.80;99.90;;;;;;4992839;28;20612;-68
2022/08/29 06:35:00;;;;;;;6.60;3.93;;;15.90;99.90;;;;;;4992631;28;20177;-69
2022/08/29 06:37:26;;;;;;;10.97;4.10;;;15.70;99.90;;;;;;4993164;28;20194;-67
2022/08/29 06:39:51;;;;;;;8.40;3.93;;;15.80;99.90;;;;;;4992900;28;20171;-67
2022/08/29 06:42:21;;;;;;;8.67;3.20;;;15.80;99.90;;;;;;4992505;28;20190;-67
2022/08/29 06:44:47;;;;;;;5.37;3.60;;;15.80;99.90;;;;;;4992753;28;20179;-68
2022/08/29 06:47:13;;;;;;;6.70;4.47;;;15.80;99.90;;;;;;4992575;28;20772;-67
2022/08/29 06:49:38;;;;;;;9.73;4.87;;;16.00;99.90;;;;;;4992559;28;20179;-68
2022/08/29 06:52:04;;;;;;;9.83;4.50;;;15.90;99.90;;;;;;4992322;28;20270;-68
2022/08/29 06:54:29;;;;;;;5.97;3.67;;;16.00;99.90;;;;;;4992468;28;20186;-67
2022/08/29 06:56:57;;;;;;;5.93;4.10;;;16.10;99.90;;;;;;4992090;28;20202;-68
2022/08/29 06:59:22;;;;;;;7.57;3.67;;;16.20;99.90;;;;;;4992544;28;20615;-69
2022/08/29 07:01:48;;;;;;;9.43;4.67;;;16.50;99.90;;;;;;4992154;28;20492;-67
2022/08/29 07:04:14;;;;;;;8.50;3.73;;;16.60;99.90;;;;;;5030172;23;20253;-75
2022/08/29 07:06:40;;;;;;;6.20;3.40;;;16.40;99.90;;;;;;5013471;28;20188;-75
2022/08/29 07:09:06;;;;;;;12.70;3.20;;;16.40;99.90;;;;;;5017223;28;20260;-75
2022/08/29 07:11:32;;;;;;;5.67;4.20;;;16.40;99.90;;;;;;5015353;28;20170;-75
2022/08/29 07:14:00;;;;;;;6.17;4.03;;;16.30;99.90;;;;;;5012767;28;20427;-75
2022/08/29 07:16:28;;;;;;;14.30;4.13;;;16.40;99.90;;;;;;5026485;28;20723;-75
2022/08/29 07:18:54;;;;;;;8.43;4.20;;;16.70;99.90;;;;;;5032479;28;20840;-74
2022/08/29 07:21:22;;;;;;;9.53;3.93;;;16.70;99.90;;;;;;5032515;28;20420;-75
2022/08/29 07:23:48;;;;;;;8.97;4.77;;;16.70;99.90;;;;;;5033203;28;20179;-73
2022/08/29 07:26:20;;;;;;;7.23;4.27;;;16.60;99.90;;;;;;5025459;28;20452;-74
2022/08/29 07:28:48;;;;;;;6.00;3.83;;;16.60;99.90;;;;;;5015338;28;20411;-75
2022/08/29 07:31:14;;;;;;;5.77;3.50;;;16.80;99.90;;;;;;5015676;28;20419;-74
2022/08/29 07:33:39;;;;;;;3.37;3.03;;;16.80;99.90;;;;;;5015821;28;20454;-74
2022/08/29 07:36:05;;;;;;;7.07;4.17;;;16.80;99.90;;;;;;5021259;28;20559;-75
2022/08/29 07:38:31;;;;;;;7.23;3.80;;;16.80;99.90;;;;;;5019559;28;20647;-75
2022/08/29 07:41:00;;;;;;;8.13;3.67;;;16.70;99.90;;;;;;5031318;28;20191;-74
2022/08/29 07:43:27;;;;;;;6.47;3.83;;;16.70;99.90;;;;;;5031254;28;20517;-74
2022/08/29 07:45:53;;;;;;;6.83;4.07;;;16.50;99.90;;;;;;5031072;28;20822;-74
2022/08/29 07:48:19;;;;;;;9.30;4.43;;;16.60;99.90;;;;;;5031237;28;20408;-75
2022/08/29 07:50:45;;;;;;;5.67;4.70;;;16.70;99.90;;;;;;5031286;28;20408;-75
2022/08/29 07:53:10;;;;;;;7.07;4.40;;;16.90;99.90;;;;;;5013254;28;20439;-74
2022/08/29 07:55:36;;;;;;;6.47;3.87;;;16.90;99.90;;;;;;5011276;28;20190;-75
2022/08/29 07:58:03;;;;;;;7.53;3.63;;;16.80;99.90;;;;;;5011501;28;20573;-75
2022/08/29 08:00:29;;;;;;;8.30;4.53;;;16.80;99.90;;;;;;5011462;28;20577;-74
2022/08/29 08:02:55;;;;;;;5.97;3.87;;;16.70;99.90;;;;;;5012185;28;20533;-75
2022/08/29 08:05:20;;;;;;;7.07;3.60;;;16.80;99.90;;;;;;5015185;28;20410;-74
2022/08/29 08:07:48;;;;;;;5.60;4.10;;;17.00;99.90;;;;;;5015409;28;20222;-76
2022/08/29 08:10:16;;;;;;;7.67;4.50;;;16.90;99.90;;;;;;5014917;28;20214;-74
2022/08/29 08:12:42;;;;;;;5.87;4.23;;;16.80;99.90;;;;;;5016220;28;20461;-78
2022/08/29 08:15:09;;;;;;;6.57;4.50;;;17.00;99.90;;;;;;5019361;28;20762;-75
2022/08/29 08:17:34;;;;;;;6.37;4.27;;;17.20;99.90;;;;;;5019762;28;20466;-74
2022/08/29 08:20:02;;;;;;;4.37;3.47;;;17.40;99.90;;;;;;5016577;28;20466;-74
2022/08/29 08:22:28;;;;;;;10.30;6.73;;;17.70;99.90;;;;;;5014935;28;20291;-74
2022/08/29 08:24:53;;;;;;;7.87;4.30;;;17.80;99.90;;;;;;5014909;28;20869;-74
2022/08/29 08:27:19;;;;;;;8.60;4.77;;;17.90;99.90;;;;;;5015412;28;20609;-75
2022/08/29 08:29:44;;;;;;;4.87;3.67;;;17.80;99.90;;;;;;5014685;28;20252;-74
2022/08/29 08:32:10;;;;;;;7.40;4.80;;;17.80;99.90;;;;;;5014801;28;20220;-74
2022/08/29 08:34:36;;;;;;;5.87;4.30;;;17.50;99.90;;;;;;5014455;28;20299;-73
2022/08/29 08:37:06;;;;;;;7.23;3.57;;;17.40;99.90;;;;;;5014899;28;20189;-73
2022/08/29 08:39:32;;;;;;;6.47;3.70;;;17.50;99.90;;;;;;5014976;28;20239;-74
2022/08/29 08:42:10;;;;;;;4.40;3.73;;;17.50;99.90;;;;;;5014902;28;20435;-74
2022/08/29 08:45:07;;;;;;;5.40;3.80;;;17.80;99.90;;;;;;5014182;28;20188;-73
2022/08/29 08:47:41;;;;;;;3.83;3.13;;;17.70;99.90;;;;;;5014416;28;20878;-75
2022/08/29 08:50:20;;;;;;;4.43;3.40;;;17.80;99.90;;;;;;5014485;28;20429;-75
2022/08/29 08:53:12;;;;;;;5.27;3.80;;;17.50;99.90;;;;;;5028760;28;20432;-75
2022/08/29 08:55:47;;;;;;;5.87;4.10;;;17.40;99.90;;;;;;5008513;28;20422;-75
2022/08/29 08:58:31;;;;;;;9.80;3.80;;;17.50;99.90;;;;;;5014578;28;20442;-76
2022/08/29 09:00:57;;;;;;;6.63;5.03;;;18.00;99.90;;;;;;5014050;28;20402;-75
2022/08/29 09:03:45;;;;;;;5.37;2.97;;;17.90;99.90;;;;;;5013606;28;20447;-74
2022/08/29 09:06:34;;;;;;;4.87;4.37;;;17.70;99.90;;;;;;5013923;28;20176;-74
2022/08/29 09:09:06;;;;;;;8.47;4.50;;;17.70;99.90;;;;;;4999770;28;20423;-74
2022/08/29 09:11:54;;;;;;;3.87;3.47;;;18.30;99.90;;;;;;5016680;28;20433;-75
2022/08/29 09:14:37;;;;;;;6.27;4.90;;;18.30;99.90;;;;;;5013512;28;20431;-74
2022/08/29 09:17:05;;;;;;;5.37;3.13;;;18.70;99.90;;;;;;5035077;28;20461;-74
2022/08/29 09:19:31;;;;;;;6.97;3.83;;;18.40;99.90;;;;;;5037882;28;20917;-75
2022/08/29 09:22:11;;;;;;;3.93;3.40;;;18.70;99.90;;;;;;5033805;28;20504;-76
2022/08/29 09:24:45;;;;;;;8.40;4.50;;;18.50;99.90;;;;;;5033855;28;20196;-76
2022/08/29 09:27:23;;;;;;;4.90;3.23;;;18.80;99.90;;;;;;5033873;28;20507;-76
2022/08/29 09:29:56;;;;;;;7.60;3.40;;;18.80;99.90;;;;;;5013370;28;20407;-75
2022/08/29 09:32:21;;;;;;;5.03;3.60;;;18.80;99.90;;;;;;5014568;28;20498;-75
2022/08/29 09:34:48;;;;;;;4.40;3.20;;;18.60;99.90;;;;;;5013664;28;20505;-74
2022/08/29 09:37:32;;;;;;;12.00;4.53;;;18.80;99.90;;;;;;5013741;28;20673;-75
2022/08/29 09:40:03;;;;;;;6.30;3.43;;;18.90;99.90;;;;;;4999145;28;20465;-74
2022/08/29 09:42:34;;;;;;;9.30;4.13;;;18.80;99.90;;;;;;5024057;28;20400;-76
2022/08/29 09:45:07;;;;;;;5.50;4.40;;;19.20;99.90;;;;;;5024737;28;20918;-74
2022/08/29 09:47:33;;;;;;;5.50;3.13;;;18.90;99.90;;;;;;5032064;28;20392;-74
2022/08/29 09:50:16;;;;;;;4.67;3.97;;;18.90;99.90;;;;;;5015548;28;20480;-74
2022/08/29 09:52:51;;;;;;;4.90;4.07;;;19.00;99.90;;;;;;5013593;28;20397;-75
2022/08/29 09:55:20;;;;;;;5.53;3.93;;;18.80;99.90;;;;;;5013103;28;20414;-75
2022/08/29 09:58:13;;;;;;;6.53;4.17;;;18.80;99.90;;;;;;5023988;28;20458;-74
2022/08/29 10:00:56;;;;;;;4.30;3.60;;;19.00;99.90;;;;;;5015525;28;20424;-75
2022/08/29 10:03:24;;;;;;;4.30;3.20;;;18.90;99.90;;;;;;5019054;28;20450;-75
2022/08/29 10:06:19;;;;;;;4.60;4.07;;;18.80;99.90;;;;;;4996473;28;20416;-74
2022/08/29 10:08:58;;;;;;;4.00;3.60;;;18.90;99.90;;;;;;5013376;28;20498;-74
2022/08/29 10:11:52;;;;;;;4.80;4.13;;;19.00;99.90;;;;;;5013114;28;20436;-75
2022/08/29 10:14:38;;;;;;;6.10;3.57;;;18.90;99.90;;;;;;5013053;28;20433;-74
2022/08/29 10:19:59;;;;;;;4.97;3.80;;;19.40;99.90;;;;;;5032960;28;20406;-75
2022/08/29 10:22:50;;;;;;;6.00;3.97;;;19.20;99.90;;;;;;5024030;28;20777;-75
2022/08/29 10:25:38;;;;;;;6.67;3.80;;;19.40;99.90;;;;;;5007380;28;20174;-76
2022/08/29 10:28:22;;;;;;;32.70;21.50;;;19.70;99.90;;;;;;5019560;28;20440;-76
2022/08/29 10:30:51;;;;;;;26.77;17.90;;;19.70;99.90;;;;;;5032578;28;20935;-76
2022/08/29 10:33:53;;;;;;;6.20;4.90;;;19.70;99.90;;;;;;5012504;28;20476;-76
2022/08/29 10:36:30;;;;;;;8.30;3.93;;;19.50;99.90;;;;;;5012924;28;20461;-75
2022/08/29 10:38:58;;;;;;;5.77;4.10;;;19.80;99.90;;;;;;5013041;28;20929;-75
2022/08/29 10:41:41;;;;;;;6.03;3.27;;;19.70;99.90;;;;;;5012435;28;20408;-74
2022/08/29 10:44:41;;;;;;;9.37;6.60;;;19.60;99.90;;;;;;5012920;28;20421;-75
2022/08/29 10:47:28;;;;;;;5.70;4.40;;;20.10;99.90;;;;;;5012338;28;20410;-74
2022/08/29 10:50:05;;;;;;;11.53;8.33;;;20.30;99.90;;;;;;5012439;28;20458;-74
2022/08/29 10:52:36;;;;;;;6.27;4.00;;;20.20;99.90;;;;;;5012709;28;20406;-75
2022/08/29 10:55:25;;;;;;;5.03;3.90;;;20.10;99.90;;;;;;5012782;28;20399;-75
2022/08/29 10:57:54;;;;;;;5.37;3.23;;;19.80;99.90;;;;;;5012654;28;20461;-75
2022/08/29 11:00:32;;;;;;;6.07;3.37;;;19.80;99.90;;;;;;5012656;28;20411;-74
2022/08/29 11:03:27;;;;;;;5.40;3.80;;;20.00;99.90;;;;;;4995946;28;20456;-75
2022/08/29 11:06:00;;;;;;;4.63;4.13;;;20.20;99.90;;;;;;5014364;28;20497;-75
2022/08/29 11:08:41;;;;;;;7.07;3.73;;;20.40;99.90;;;;;;5012226;28;20412;-75
2022/08/29 11:11:07;;;;;;;5.77;3.57;;;20.40;99.90;;;;;;5006238;28;20417;-76
2022/08/29 11:13:46;;;;;;;5.97;4.80;;;20.30;99.90;;;;;;5012424;28;20425;-75
2022/08/29 11:16:30;;;;;;;3.90;3.60;;;20.60;99.90;;;;;;5023795;28;20454;-74
2022/08/29 11:19:09;;;;;;;4.13;3.10;;;20.40;99.90;;;;;;5032434;28;20807;-75
2022/08/29 11:21:53;;;;;;;4.17;3.70;;;20.20;99.90;;;;;;5034124;28;20445;-74
2022/08/29 11:24:19;;;;;;;9.97;8.53;;;20.20;99.90;;;;;;5035196;28;20415;-75
2022/08/29 11:26:48;;;;;;;6.83;4.70;;;20.40;99.90;;;;;;5022230;28;20418;-75
2022/08/29 11:30:04;;;;;;;6.73;4.00;;;20.50;99.90;;;;;;5012344;28;20435;-74
2022/08/29 11:32:49;;;;;;;8.00;3.93;;;20.70;99.90;;;;;;4951213;29;20488;-73
2022/08/29 11:35:22;;;;;;;7.00;4.10;;;21.10;99.90;;;;;;5007251;28;20415;-74
2022/08/29 11:38:14;;;;;;;2.90;2.70;;;21.40;99.90;;;;;;5012782;28;20495;-75
2022/08/29 11:40:55;;;;;;;3.80;3.10;;;21.80;99.90;;;;;;4985356;28;20426;-74
2022/08/29 11:43:34;;;;;;;4.80;3.40;;;21.70;99.90;;;;;;5015523;28;20434;-74
2022/08/29 11:46:03;;;;;;;4.57;3.17;;;21.70;99.90;;;;;;5015563;28;20461;-75
2022/08/29 11:48:30;;;;;;;5.30;2.80;;;21.40;99.90;;;;;;5015649;28;20437;-75
2022/08/29 11:50:56;;;;;;;5.37;3.30;;;21.90;99.90;;;;;;5015573;28;20517;-73
2022/08/29 11:53:34;;;;;;;5.03;3.60;;;21.90;99.90;;;;;;5015440;28;20423;-74
2022/08/29 11:56:12;;;;;;;3.50;2.70;;;21.50;99.90;;;;;;5015123;28;20794;-73
2022/08/29 11:58:41;;;;;;;6.10;3.70;;;21.60;99.90;;;;;;5015570;28;20533;-74
2022/08/29 12:01:32;;;;;;;4.67;3.80;;;21.60;99.90;;;;;;5015542;28;20428;-74
2022/08/29 12:03:59;;;;;;;3.73;3.03;;;21.80;99.90;;;;;;5016680;28;20454;-76
2022/08/29 12:06:41;;;;;;;3.63;2.57;;;22.00;99.90;;;;;;5034741;28;20823;-75
2022/08/29 12:09:12;;;;;;;3.07;2.60;;;22.00;99.90;;;;;;5030598;28;20421;-74
2022/08/29 12:11:59;;;;;;;3.83;3.33;;;22.00;99.90;;;;;;5014996;28;20784;-75
2022/08/29 12:14:51;;;;;;;8.60;6.67;;;22.30;99.90;;;;;;5014770;28;20441;-75
2022/08/29 12:17:26;;;;;;;4.47;3.60;;;22.80;99.90;;;;;;4992635;28;21024;-75
2022/08/29 12:19:58;;;;;;;6.70;4.00;;;22.80;99.90;;;;;;5008698;28;20401;-75
2022/08/29 12:22:43;;;;;;;3.87;3.00;;;22.60;99.90;;;;;;5015484;28;20395;-75
2022/08/29 12:25:27;;;;;;;6.00;3.77;;;22.10;99.90;;;;;;4995333;28;20480;-76
2022/08/29 12:28:26;;;;;;;5.00;3.30;;;21.80;99.90;;;;;;4997559;28;20415;-75
2022/08/29 12:30:58;;;;;;;5.03;2.93;;;21.90;99.90;;;;;;5014953;28;20407;-76
2022/08/29 12:33:39;;;;;;;3.40;3.10;;;22.00;99.90;;;;;;5014963;28;20477;-75
2022/08/29 12:36:11;;;;;;;4.60;3.50;;;22.00;99.90;;;;;;4997462;28;20422;-76
2022/08/29 12:38:57;;;;;;;3.93;3.00;;;22.20;99.90;;;;;;5015406;28;20447;-75
2022/08/29 12:41:57;;;;;;;3.33;2.90;;;21.90;99.90;;;;;;5015137;28;20411;-74
2022/08/29 12:44:33;;;;;;;3.90;2.93;;;21.70;99.90;;;;;;4993448;28;20446;-76
2022/08/29 12:47:07;;;;;;;4.73;3.10;;;22.20;99.90;;;;;;5015205;28;20409;-73
2022/08/29 12:49:49;;;;;;;3.80;3.33;;;22.30;99.90;;;;;;5017266;28;20919;-75
2022/08/29 12:52:28;;;;;;;7.70;2.90;;;22.60;99.90;;;;;;5015770;28;20414;-73
2022/08/29 12:54:56;;;;;;;4.30;3.50;;;23.00;99.90;;;;;;5014711;28;20405;-74
2022/08/29 12:57:34;;;;;;;3.20;2.90;;;23.10;99.90;;;;;;5014510;28;20462;-74
2022/08/29 13:00:07;;;;;;;20.23;15.50;;;23.20;99.90;;;;;;5014688;28;20411;-74
2022/08/29 13:02:36;;;;;;;5.80;4.00;;;23.30;99.90;;;;;;5014076;28;20414;-74
2022/08/29 13:05:16;;;;;;;10.97;8.73;;;22.80;99.90;;;;;;5027134;23;20482;-69
2022/08/29 13:07:53;;;;;;;30.27;22.73;;;22.50;99.90;;;;;;5014480;28;20413;-69
2022/08/29 13:10:19;;;;;;;3.93;3.53;;;23.10;99.90;;;;;;5014160;28;20571;-69
2022/08/29 13:12:45;;;;;;;5.10;3.40;;;23.10;99.90;;;;;;5013739;28;20489;-69
2022/08/29 13:15:26;;;;;;;4.70;3.47;;;22.60;99.90;;;;;;5013267;28;20197;-69
2022/08/29 13:17:55;;;;;;;6.03;4.17;;;22.50;99.90;;;;;;5013796;28;20221;-70
2022/08/29 13:20:39;;;;;;;5.63;4.33;;;22.90;99.90;;;;;;5013459;28;20403;-68
2022/08/29 13:23:10;;;;;;;4.83;3.83;;;22.90;99.90;;;;;;5013443;28;20415;-68
2022/08/29 13:25:57;;;;;;;5.27;4.03;;;22.80;99.90;;;;;;5012880;28;20444;-68
2022/08/29 13:28:23;;;;;;;22.90;18.23;;;23.00;99.90;;;;;;5013180;28;20909;-68
2022/08/29 13:31:14;;;;;;;5.00;4.20;;;23.00;99.90;;;;;;5013188;28;20407;-68
2022/08/29 13:33:48;;;;;;;3.53;3.20;;;23.40;99.90;;;;;;5012655;28;20418;-68
2022/08/29 13:36:30;;;;;;;7.80;4.80;;;22.90;99.90;;;;;;5012748;28;20403;-69
2022/08/29 13:39:14;;;;;;;7.57;3.83;;;23.00;99.90;;;;;;5013077;28;20420;-70
2022/08/29 13:41:41;;;;;;;4.07;3.07;;;23.50;99.90;;;;;;5012830;28;20409;-68
2022/08/29 13:44:15;;;;;;;3.87;3.47;;;23.60;99.90;;;;;;5012768;28;20422;-69
2022/08/29 13:46:45;;;;;;;4.80;4.23;;;23.20;99.90;;;;;;5013131;28;20484;-69
2022/08/29 13:49:18;;;;;;;4.20;3.50;;;23.00;99.90;;;;;;5012758;28;20448;-69
2022/08/29 13:51:44;;;;;;;3.00;2.77;;;23.10;99.90;;;;;;5012537;28;20411;-68
2022/08/29 13:54:09;;;;;;;3.73;3.23;;;23.20;99.90;;;;;;5012521;28;20793;-68
2022/08/29 13:56:35;;;;;;;4.80;3.53;;;22.90;99.90;;;;;;5012452;28;20731;-69
2022/08/29 13:59:01;;;;;;;5.93;3.03;;;23.20;99.90;;;;;;5012537;28;20179;-68
2022/08/29 14:01:27;;;;;;;4.93;2.87;;;23.60;99.90;;;;;;5012181;28;20167;-69
2022/08/29 14:03:53;;;;;;;3.50;2.50;;;24.10;99.90;;;;;;5024914;28;20823;-70
2022/08/29 14:06:21;;;;;;;6.07;2.63;;;24.20;99.90;;;;;;5032276;28;20695;-69
2022/08/29 14:08:47;;;;;;;7.50;4.70;;;24.30;99.90;;;;;;5031252;28;20924;-69
2022/08/29 14:11:13;;;;;;;6.43;3.80;;;24.40;99.90;;;;;;5012132;28;20422;-69
2022/08/29 14:13:39;;;;;;;8.10;4.60;;;23.90;99.90;;;;;;5012243;28;20901;-69